Main page
METAR-TAF:

METAR-TAF

Airports :

Lyon–Saint-Exupéry Airport

Lyon / Saint Exupéry, France

latitude: 45-44N, longitude: 005-05E, elevation: 248 m

Current weather observation

The report was made 22 minutes ago, at 23:00 UTC
Wind 8 kt from the South
Temperature 18°C
Humidity 49%
Pressure 998 hPa
Visibility 10 km or more
no clouds below 1500 m and no cumulonimbus

METAR: LFLL 222300Z 17008KT CAVOK 18/07 Q0998 NOSIG

Time: 01:22 (23:22 UTC)

Forecast

The report was made 6 hours and 22 minutes ago, at 17:00 UTC
Forecast valid from 22 at 18 UTC to 23 at 24 UTC
Wind 8 kt from the North
Visibility 10 km or more
no clouds below 1500 m and no cumulonimbus
Becoming
from 22 at 18 UTC to 22 at 21 UTC
Wind 10 kt from the South
Temporary
from 23 at 14 UTC to 23 at 18 UTC
Wind 15 kt from the South/Southwest with gusts up to 25 kt
Few clouds at a height of 6500 ft, Towering cumulus.

TAF: LFLL 221700Z 2218/2324 36008KT CAVOK BECMG 2218/2221 18010KT TEMPO 2314/2318 20015G25KT FEW065TCU

Weather observations and forecasts of more than 4000 airports (METAR and TAF reports).

The available stations are represented by yellow and red dots on the map.

Hover mouse over dot to see the name of the station.

Then click to see weather observations and forecasts.

To change the map : click on the green buttons with a black cross to zoom in, on the green button with a dash to zoom out, or on the green arrows for adjacent maps.


METAR-TAF: